<?xml version="1.0" encoding="UTF-8" standalone="no" ?><gpx xmlns="http://www.topografix.com/GPX/1/1" xmlns:gpxx="http://www.garmin.com/xmlschemas/GpxExtensions/v3" xmlns:gpxtrkx="http://www.garmin.com/xmlschemas/TrackStatsExtension/v1" xmlns:wptx1="http://www.garmin.com/xmlschemas/WaypointExtension/v1" xmlns:gpxtpx="http://www.garmin.com/xmlschemas/TrackPointExtension/v1" creator="GPSMAP 66ST" version="1.1" xmlns:xsi="http://www.w3.org/2001/XMLSchema-instance" xsi:schemaLocation="http://www.topografix.com/GPX/1/1 http://www.topografix.com/GPX/1/1/gpx.xsd http://www.garmin.com/xmlschemas/GpxExtensions/v3 http://www8.garmin.com/xmlschemas/GpxExtensionsv3.xsd http://www.garmin.com/xmlschemas/TrackStatsExtension/v1 http://www8.garmin.com/xmlschemas/TrackStatsExtension.xsd http://www.garmin.com/xmlschemas/WaypointExtension/v1 http://www8.garmin.com/xmlschemas/WaypointExtensionv1.xsd http://www.garmin.com/xmlschemas/TrackPointExtension/v1 http://www.garmin.com/xmlschemas/TrackPointExtensionv1.xsd"><metadata><link href="http://www.garmin.com"><text>Garmin International</text></link><time>2020-04-19T11:51:07Z</time></metadata><trk><name>2020-04-19 13:51:06</name><extensions><gpxx:TrackExtension><gpxx:DisplayColor>Cyan</gpxx:DisplayColor></gpxx:TrackExtension><gpxtrkx:TrackStatsExtension><gpxtrkx:Distance>5839.000</gpxtrkx:Distance><gpxtrkx:TimerTime>1017</gpxtrkx:TimerTime><gpxtrkx:TotalElapsedTime>1019</gpxtrkx:TotalElapsedTime><gpxtrkx:MovingTime>857</gpxtrkx:MovingTime><gpxtrkx:StoppedTime>161</gpxtrkx:StoppedTime><gpxtrkx:MovingSpeed>6.815</gpxtrkx:MovingSpeed><gpxtrkx:MaxSpeed>11.618</gpxtrkx:MaxSpeed><gpxtrkx:MaxElevation>174.378</gpxtrkx:MaxElevation><gpxtrkx:MinElevation>138.082</gpxtrkx:MinElevation><gpxtrkx:Ascent>50.000</gpxtrkx:Ascent><gpxtrkx:Descent>19.719</gpxtrkx:Descent><gpxtrkx:AvgAscentRate>0.081</gpxtrkx:AvgAscentRate><gpxtrkx:MaxAscentRate>0.317</gpxtrkx:MaxAscentRate><gpxtrkx:AvgDescentRate>0.077</gpxtrkx:AvgDescentRate><gpxtrkx:MaxDescentRate>-0.187</gpxtrkx:MaxDescentRate><gpxtrkx:Calories>287</gpxtrkx:Calories></gpxtrkx:TrackStatsExtension></extensions><trkseg><trkpt lat="46.7645861674" lon="18.3945563156"><ele>140.65</ele><time>2020-04-19T11:34:09Z</time></trkpt><trkpt lat="46.7645860836" lon="18.3945563994"><ele>142.19</ele><time>2020-04-19T11:34:10Z</time></trkpt><trkpt lat="46.7645861674" lon="18.3945569023"><ele>142.24</ele><time>2020-04-19T11:34:17Z</time></trkpt><trkpt lat="46.7646031827" lon="18.3945429884"><ele>141.16</ele><time>2020-04-19T11:34:33Z</time></trkpt><trkpt lat="46.7646782007" lon="18.3944610134"><ele>141.28</ele><time>2020-04-19T11:34:35Z</time></trkpt><trkpt lat="46.7649207730" lon="18.3941936307"><ele>141.63</ele><time>2020-04-19T11:34:40Z</time></trkpt><trkpt lat="46.7649628501" lon="18.3941264916"><ele>141.61</ele><time>2020-04-19T11:34:41Z</time></trkpt><trkpt lat="46.7651725654" lon="18.3937840909"><ele>141.67</ele><time>2020-04-19T11:34:46Z</time></trkpt><trkpt lat="46.7657375056" lon="18.3931842819"><ele>142.54</ele><time>2020-04-19T11:34:56Z</time></trkpt><trkpt lat="46.7659271043" lon="18.3929600660"><ele>142.78</ele><time>2020-04-19T11:35:00Z</time></trkpt><trkpt lat="46.7660012003" lon="18.3928516041"><ele>142.85</ele><time>2020-04-19T11:35:02Z</time></trkpt><trkpt lat="46.7660466302" lon="18.3927984629"><ele>142.89</ele><time>2020-04-19T11:35:03Z</time></trkpt><trkpt lat="46.7661374062" lon="18.3926855586"><ele>142.98</ele><time>2020-04-19T11:35:05Z</time></trkpt><trkpt lat="46.7667015083" lon="18.3919986617"><ele>143.34</ele><time>2020-04-19T11:35:17Z</time></trkpt><trkpt lat="46.7673501000" lon="18.3911794983"><ele>143.75</ele><time>2020-04-19T11:35:29Z</time></trkpt><trkpt lat="46.7678386811" lon="18.3905561361"><ele>144.18</ele><time>2020-04-19T11:35:40Z</time></trkpt><trkpt lat="46.7684981693" lon="18.3897959813"><ele>143.88</ele><time>2020-04-19T11:35:51Z</time></trkpt><trkpt lat="46.7691492755" lon="18.3890470583"><ele>143.20</ele><time>2020-04-19T11:36:02Z</time></trkpt><trkpt lat="46.7696718872" lon="18.3884737361"><ele>142.66</ele><time>2020-04-19T11:36:11Z</time></trkpt><trkpt lat="46.7700820975" lon="18.3879159205"><ele>142.65</ele><time>2020-04-19T11:36:20Z</time></trkpt><trkpt lat="46.7708873469" lon="18.3871363197"><ele>144.82</ele><time>2020-04-19T11:36:35Z</time></trkpt><trkpt lat="46.7710624449" lon="18.3870333061"><ele>144.84</ele><time>2020-04-19T11:36:38Z</time></trkpt><trkpt lat="46.7713610921" lon="18.3868947532"><ele>144.51</ele><time>2020-04-19T11:36:43Z</time></trkpt><trkpt lat="46.7714121379" lon="18.3868469764"><ele>144.44</ele><time>2020-04-19T11:36:44Z</time></trkpt><trkpt lat="46.7719372641" lon="18.3863171563"><ele>143.77</ele><time>2020-04-19T11:36:54Z</time></trkpt><trkpt lat="46.7722695228" lon="18.3861006517"><ele>143.40</ele><time>2020-04-19T11:37:05Z</time></trkpt><trkpt lat="46.7726911325" lon="18.3857636992"><ele>143.22</ele><time>2020-04-19T11:37:17Z</time></trkpt><trkpt lat="46.7731805518" lon="18.3853988349"><ele>143.54</ele><time>2020-04-19T11:37:28Z</time></trkpt><trkpt lat="46.7737696320" lon="18.3849441167"><ele>144.34</ele><time>2020-04-19T11:37:40Z</time></trkpt><trkpt lat="46.7739799339" lon="18.3847887162"><ele>143.93</ele><time>2020-04-19T11:37:50Z</time></trkpt><trkpt lat="46.7744017113" lon="18.3844591398"><ele>144.33</ele><time>2020-04-19T11:38:04Z</time></trkpt><trkpt lat="46.7751208786" lon="18.3838956244"><ele>145.16</ele><time>2020-04-19T11:38:21Z</time></trkpt><trkpt lat="46.7754579987" lon="18.3835928701"><ele>145.82</ele><time>2020-04-19T11:38:29Z</time></trkpt><trkpt lat="46.7761940975" lon="18.3830144349"><ele>147.21</ele><time>2020-04-19T11:38:42Z</time></trkpt><trkpt lat="46.7767993547" lon="18.3825793304"><ele>149.01</ele><time>2020-04-19T11:38:53Z</time></trkpt><trkpt lat="46.7773048673" lon="18.3821987920"><ele>149.98</ele><time>2020-04-19T11:39:04Z</time></trkpt><trkpt lat="46.7775368784" lon="18.3820547070"><ele>150.30</ele><time>2020-04-19T11:39:14Z</time></trkpt><trkpt lat="46.7775491159" lon="18.3820443135"><ele>150.28</ele><time>2020-04-19T11:39:25Z</time></trkpt><trkpt lat="46.7776496988" lon="18.3819623385"><ele>150.29</ele><time>2020-04-19T11:39:28Z</time></trkpt><trkpt lat="46.7782201711" lon="18.3815036807"><ele>151.52</ele><time>2020-04-19T11:39:41Z</time></trkpt><trkpt lat="46.7787385080" lon="18.3810907882"><ele>153.19</ele><time>2020-04-19T11:39:51Z</time></trkpt><trkpt lat="46.7787794955" lon="18.3810689114"><ele>153.32</ele><time>2020-04-19T11:39:52Z</time></trkpt><trkpt lat="46.7788280267" lon="18.3810426760"><ele>153.46</ele><time>2020-04-19T11:39:53Z</time></trkpt><trkpt lat="46.7794062104" lon="18.3806064818"><ele>155.41</ele><time>2020-04-19T11:40:03Z</time></trkpt><trkpt lat="46.7800719850" lon="18.3800901566"><ele>157.86</ele><time>2020-04-19T11:40:17Z</time></trkpt><trkpt lat="46.7805989552" lon="18.3796730731"><ele>156.92</ele><time>2020-04-19T11:40:27Z</time></trkpt><trkpt lat="46.7811046354" lon="18.3793021739"><ele>157.53</ele><time>2020-04-19T11:40:38Z</time></trkpt><trkpt lat="46.7816849146" lon="18.3788815700"><ele>156.06</ele><time>2020-04-19T11:40:51Z</time></trkpt><trkpt lat="46.7820344400" lon="18.3785888739"><ele>154.34</ele><time>2020-04-19T11:41:00Z</time></trkpt><trkpt lat="46.7820738349" lon="18.3785410970"><ele>154.18</ele><time>2020-04-19T11:41:01Z</time></trkpt><trkpt lat="46.7821210250" lon="18.3784956671"><ele>154.07</ele><time>2020-04-19T11:41:02Z</time></trkpt><trkpt lat="46.7827244382" lon="18.3780182339"><ele>152.78</ele><time>2020-04-19T11:41:14Z</time></trkpt><trkpt lat="46.7834591120" lon="18.3774672914"><ele>152.83</ele><time>2020-04-19T11:41:26Z</time></trkpt><trkpt lat="46.7839298397" lon="18.3771285787"><ele>152.49</ele><time>2020-04-19T11:41:37Z</time></trkpt><trkpt lat="46.7844682094" lon="18.3767218050"><ele>152.83</ele><time>2020-04-19T11:41:49Z</time></trkpt><trkpt lat="46.7851726245" lon="18.3761767298"><ele>153.14</ele><time>2020-04-19T11:42:03Z</time></trkpt><trkpt lat="46.7859258223" lon="18.3756090235"><ele>153.97</ele><time>2020-04-19T11:42:16Z</time></trkpt><trkpt lat="46.7865025811" lon="18.3751599211"><ele>154.28</ele><time>2020-04-19T11:42:27Z</time></trkpt><trkpt lat="46.7873073276" lon="18.3745563403"><ele>155.42</ele><time>2020-04-19T11:42:40Z</time></trkpt><trkpt lat="46.7883170955" lon="18.3737866301"><ele>158.45</ele><time>2020-04-19T11:42:53Z</time></trkpt><trkpt lat="46.7890684493" lon="18.3732055128"><ele>161.49</ele><time>2020-04-19T11:43:03Z</time></trkpt><trkpt lat="46.7897276022" lon="18.3726964798"><ele>164.68</ele><time>2020-04-19T11:43:11Z</time></trkpt><trkpt lat="46.7903209571" lon="18.3722258359"><ele>166.99</ele><time>2020-04-19T11:43:21Z</time></trkpt><trkpt lat="46.7903177720" lon="18.3722202200"><ele>166.95</ele><time>2020-04-19T11:43:39Z</time></trkpt><trkpt lat="46.7903245613" lon="18.3721985947"><ele>166.41</ele><time>2020-04-19T11:43:55Z</time></trkpt><trkpt lat="46.7903364636" lon="18.3721783943"><ele>166.02</ele><time>2020-04-19T11:44:22Z</time></trkpt><trkpt lat="46.7903970648" lon="18.3721260913"><ele>165.99</ele><time>2020-04-19T11:44:24Z</time></trkpt><trkpt lat="46.7909920961" lon="18.3716650866"><ele>166.19</ele><time>2020-04-19T11:44:34Z</time></trkpt><trkpt lat="46.7921665683" lon="18.3707414009"><ele>164.15</ele><time>2020-04-19T11:44:48Z</time></trkpt><trkpt lat="46.7927955464" lon="18.3702612016"><ele>162.37</ele><time>2020-04-19T11:44:57Z</time></trkpt><trkpt lat="46.7939620558" lon="18.3693778329"><ele>161.09</ele><time>2020-04-19T11:45:11Z</time></trkpt><trkpt lat="46.7946365476" lon="18.3688559756"><ele>161.01</ele><time>2020-04-19T11:45:21Z</time></trkpt><trkpt lat="46.7952220235" lon="18.3683995809"><ele>161.56</ele><time>2020-04-19T11:45:31Z</time></trkpt><trkpt lat="46.7961965874" lon="18.3676616382"><ele>162.45</ele><time>2020-04-19T11:45:44Z</time></trkpt><trkpt lat="46.7973677907" lon="18.3667826280"><ele>163.98</ele><time>2020-04-19T11:45:59Z</time></trkpt><trkpt lat="46.7980766483" lon="18.3662387263"><ele>165.68</ele><time>2020-04-19T11:46:14Z</time></trkpt><trkpt lat="46.7981242575" lon="18.3661506325"><ele>166.00</ele><time>2020-04-19T11:46:17Z</time></trkpt><trkpt lat="46.7981245089" lon="18.3661142550"><ele>166.10</ele><time>2020-04-19T11:46:18Z</time></trkpt><trkpt lat="46.7981189769" lon="18.3660787158"><ele>166.19</ele><time>2020-04-19T11:46:19Z</time></trkpt><trkpt lat="46.7981084995" lon="18.3660383988"><ele>167.28</ele><time>2020-04-19T11:46:29Z</time></trkpt><trkpt lat="46.7981157918" lon="18.3660748601"><ele>167.28</ele><time>2020-04-19T11:46:53Z</time></trkpt><trkpt lat="46.7981770635" lon="18.3661263250"><ele>167.28</ele><time>2020-04-19T11:46:57Z</time></trkpt><trkpt lat="46.7982007004" lon="18.3661161829"><ele>167.35</ele><time>2020-04-19T11:46:58Z</time></trkpt><trkpt lat="46.7985816579" lon="18.3658297732"><ele>168.44</ele><time>2020-04-19T11:47:04Z</time></trkpt><trkpt lat="46.7992152460" lon="18.3653376717"><ele>171.62</ele><time>2020-04-19T11:47:13Z</time></trkpt><trkpt lat="46.7997543700" lon="18.3649251983"><ele>173.38</ele><time>2020-04-19T11:47:24Z</time></trkpt><trkpt lat="46.8003359064" lon="18.3646392915"><ele>173.70</ele><time>2020-04-19T11:47:35Z</time></trkpt><trkpt lat="46.8010972347" lon="18.3642082103"><ele>172.82</ele><time>2020-04-19T11:47:47Z</time></trkpt><trkpt lat="46.8020673562" lon="18.3637456130"><ele>170.79</ele><time>2020-04-19T11:47:59Z</time></trkpt><trkpt lat="46.8031897768" lon="18.3632410225"><ele>170.09</ele><time>2020-04-19T11:48:13Z</time></trkpt><trkpt lat="46.8035349436" lon="18.3630989492"><ele>169.54</ele><time>2020-04-19T11:48:22Z</time></trkpt><trkpt lat="46.8035441637" lon="18.3630960993"><ele>169.35</ele><time>2020-04-19T11:48:34Z</time></trkpt><trkpt lat="46.8035496958" lon="18.3630926628"><ele>169.27</ele><time>2020-04-19T11:49:15Z</time></trkpt><trkpt lat="46.8036612589" lon="18.3630335703"><ele>169.44</ele><time>2020-04-19T11:49:18Z</time></trkpt><trkpt lat="46.8043950107" lon="18.3626769204"><ele>170.92</ele><time>2020-04-19T11:49:27Z</time></trkpt><trkpt lat="46.8052980769" lon="18.3622517902"><ele>171.50</ele><time>2020-04-19T11:49:38Z</time></trkpt><trkpt lat="46.8063112814" lon="18.3616125025"><ele>170.32</ele><time>2020-04-19T11:49:50Z</time></trkpt><trkpt lat="46.8071878608" lon="18.3609904815"><ele>169.66</ele><time>2020-04-19T11:50:01Z</time></trkpt><trkpt lat="46.8078907672" lon="18.3604676183"><ele>170.45</ele><time>2020-04-19T11:50:09Z</time></trkpt><trkpt lat="46.8087549414" lon="18.3597906958"><ele>172.56</ele><time>2020-04-19T11:50:20Z</time></trkpt><trkpt lat="46.8094993383" lon="18.3592279349"><ele>173.68</ele><time>2020-04-19T11:50:31Z</time></trkpt><trkpt lat="46.8101843912" lon="18.3586910740"><ele>174.20</ele><time>2020-04-19T11:50:42Z</time></trkpt><trkpt lat="46.8102689646" lon="18.3584987093"><ele>174.03</ele><time>2020-04-19T11:50:50Z</time></trkpt><trkpt lat="46.8102660310" lon="18.3584889024"><ele>173.89</ele><time>2020-04-19T11:51:06Z</time></trkpt></trkseg></trk></gpx>